Portada
METAR-TAF:

METAR-TAF

Aeroports :

Ha'il, Aràbia Saudita

latitud: 27-26N, longitud: 041-41E, altitud: 1015 m

Observació

L'informe es va fer fa 34 minuts, a les 16:00 UTC
Vent 8 kt del Sud
Temperatura 36°C
Humitat 14%
Pressió 1015 hPa
Visibilitat 10 km o més
Núvols disperses a una alçada de 4500 ft

METAR: OEHL 271600Z 19008KT 9999 SCT045 36/04 Q1015 NOSIG

Hora: 19:34 (16:34 UTC)

Pronòstic

L'informe es va fer fa 5 hores i 34 minuts, a les 11:00 UTC
Pronòstic vàlid del 27 a les 12 UTC al 28 a les 18 UTC
Vent 12 kt del Sud/Sud-Oest
Visibilitat: 7000 m
Escasses núvols a una alçada de 4000 ft
Evolucionant progressivament
l' 27 a les 16 UTC al 27 a les 18 UTC
Vent 3 kt amb direcció variable

TAF: OEHL 271100Z 2712/2818 20012KT 7000 FEW040 BECMG 2716/2718 VRB03KT

Observacions i pronòstics meteorològics de més de 4000 aeroports (METAR i TAF).

Les estacions disponibles són els punts grocs i vermells al mapa.

Posi el ratolí al punt desitjat per veure el nom de l'estació.

Feu clic per veure les observacions i els pronòstics meteorològics.

Per canviar el mapa: feu clic els botons verds amb una creu de color negre per apropar; al botó verd amb un guió per allunyar la imatge; o en les fletxes verdes per a mapes adjacents.


METAR-TAF: